createdAt,value
2018-08-23T00:01:30.753Z,31.87
2018-08-23T00:04:05.210Z,32.00
2018-08-23T00:06:34.228Z,32.17
2018-08-23T00:09:04.437Z,32.20
2018-08-23T00:11:36.092Z,36.27
2018-08-23T00:14:05.094Z,34.93
2018-08-23T00:16:39.168Z,35.10
2018-08-23T00:19:08.005Z,35.53
2018-08-23T00:21:45.590Z,32.83
2018-08-23T00:24:19.225Z,36.10
2018-08-23T00:26:52.155Z,36.50
2018-08-23T00:29:25.780Z,36.43
2018-08-23T00:32:07.961Z,34.30
2018-08-23T00:34:39.247Z,36.33
2018-08-23T00:37:09.179Z,35.90
2018-08-23T00:39:38.412Z,35.37
2018-08-23T00:42:10.911Z,36.00
2018-08-23T00:44:56.267Z,37.03
2018-08-23T00:47:27.531Z,36.60
2018-08-23T00:49:56.655Z,38.23
2018-08-23T00:52:36.694Z,38.13
2018-08-23T00:55:14.241Z,36.70
2018-08-23T00:57:43.143Z,37.43
2018-08-23T01:00:17.013Z,39.40
2018-08-23T01:02:50.697Z,37.97
2018-08-23T01:05:24.918Z,35.83
2018-08-23T01:07:53.804Z,37.73
2018-08-23T01:10:22.609Z,39.00
2018-08-23T01:12:58.087Z,36.23
2018-08-23T01:15:27.224Z,37.87
2018-08-23T01:18:10.392Z,36.73
2018-08-23T01:20:40.141Z,37.17
2018-08-23T01:23:09.300Z,37.03
2018-08-23T01:25:40.350Z,37.17
2018-08-23T01:28:09.732Z,37.30
2018-08-23T01:30:39.368Z,37.17
2018-08-23T01:33:11.995Z,37.53
2018-08-23T01:35:42.038Z,39.20
2018-08-23T01:38:11.698Z,39.07
2018-08-23T01:40:40.978Z,37.90
2018-08-23T01:43:09.816Z,40.57
2018-08-23T01:45:38.756Z,39.93
2018-08-23T01:48:08.925Z,38.43
2018-08-23T01:50:37.796Z,39.37
2018-08-23T01:53:06.856Z,41.63
2018-08-23T01:55:35.674Z,40.93
2018-08-23T01:58:04.533Z,43.53
2018-08-23T02:00:34.625Z,42.73
2018-08-23T02:03:03.995Z,39.93
2018-08-23T02:05:32.837Z,41.27
2018-08-23T02:08:01.692Z,43.07
2018-08-23T02:10:30.682Z,45.63
2018-08-23T02:12:59.532Z,44.00
2018-08-23T02:15:36.252Z,44.93
2018-08-23T02:18:05.624Z,44.10
2018-08-23T02:20:34.644Z,42.73
2018-08-23T02:23:05.663Z,43.23
2018-08-23T02:25:34.593Z,43.43
2018-08-23T02:28:10.474Z,43.33
2018-08-23T02:30:49.306Z,42.83
2018-08-23T02:33:18.228Z,42.03
2018-08-23T02:36:01.157Z,42.67
2018-08-23T02:38:30.359Z,40.80
2018-08-23T02:40:59.426Z,40.50
2018-08-23T02:43:29.135Z,38.33
2018-08-23T02:45:59.504Z,36.87
2018-08-23T02:48:28.534Z,33.77
2018-08-23T02:50:57.241Z,35.73
2018-08-23T02:53:38.200Z,37.13
2018-08-23T02:56:12.566Z,35.97
2018-08-23T02:58:58.270Z,36.13
2018-08-23T03:01:29.468Z,34.27
2018-08-23T03:04:07.216Z,35.87
2018-08-23T03:06:56.233Z,36.03
2018-08-23T03:09:27.378Z,34.73
2018-08-23T03:11:58.876Z,32.77
2018-08-23T03:14:28.624Z,35.77
2018-08-23T03:17:36.338Z,35.73
2018-08-23T03:20:12.581Z,35.07
2018-08-23T03:22:42.091Z,38.23
2018-08-23T03:25:13.091Z,37.77
2018-08-23T03:27:42.102Z,38.20
2018-08-23T03:30:12.130Z,38.07
2018-08-23T03:32:41.039Z,40.23
2018-08-23T03:35:10.138Z,40.70
2018-08-23T03:37:39.052Z,40.37
2018-08-23T03:40:08.488Z,38.80
2018-08-23T03:42:37.256Z,44.40
2018-08-23T03:45:07.145Z,44.70
2018-08-23T03:47:41.311Z,47.27
2018-08-23T03:50:10.176Z,46.03
2018-08-23T03:52:41.279Z,46.23
2018-08-23T03:55:11.454Z,45.73
2018-08-23T03:57:45.638Z,45.70
2018-08-23T04:00:14.509Z,48.67
2018-08-23T04:02:43.271Z,46.43
2018-08-23T04:05:17.385Z,49.43
2018-08-23T04:07:46.236Z,49.40
2018-08-23T04:10:21.577Z,48.87
2018-08-23T04:12:50.567Z,46.07
2018-08-23T04:15:26.613Z,50.10
2018-08-23T04:17:55.521Z,50.33
2018-08-23T04:20:24.400Z,50.70
2018-08-23T04:22:53.363Z,50.40
2018-08-23T04:25:22.137Z,50.07
2018-08-23T04:27:51.204Z,50.03
2018-08-23T04:30:20.138Z,49.63
2018-08-23T04:32:49.813Z,50.17
2018-08-23T04:35:23.677Z,49.60
2018-08-23T04:37:53.086Z,49.63
2018-08-23T04:40:22.633Z,50.23
2018-08-23T04:42:51.522Z,50.77
2018-08-23T04:45:24.514Z,47.43
2018-08-23T04:48:13.490Z,48.03
2018-08-23T04:50:42.447Z,45.57
2018-08-23T04:53:11.569Z,43.53
2018-08-23T04:55:40.402Z,44.30
2018-08-23T04:58:09.683Z,43.50
2018-08-23T05:00:38.681Z,42.73
2018-08-23T05:03:07.715Z,42.90
2018-08-23T05:05:36.682Z,45.13
2018-08-23T05:08:05.875Z,42.37
2018-08-23T05:10:34.972Z,43.43
2018-08-23T05:13:03.877Z,44.37
2018-08-23T05:15:32.742Z,43.20
2018-08-23T05:18:01.604Z,44.83
2018-08-23T05:20:30.417Z,45.43
2018-08-23T05:23:04.715Z,44.43
2018-08-23T05:25:33.556Z,44.67
2018-08-23T05:28:18.599Z,43.73
2018-08-23T05:30:48.120Z,45.13
2018-08-23T05:33:21.966Z,45.40
2018-08-23T05:35:50.994Z,44.50
2018-08-23T05:38:20.468Z,43.53
2018-08-23T05:40:56.969Z,44.93
2018-08-23T05:43:26.009Z,45.97
2018-08-23T05:45:56.205Z,45.43
2018-08-23T05:48:32.319Z,45.33
2018-08-23T05:51:06.718Z,45.97
2018-08-23T05:53:40.690Z,45.53
2018-08-23T05:56:09.701Z,47.10
2018-08-23T05:58:38.880Z,47.43
2018-08-23T06:01:07.898Z,44.73
2018-08-23T06:03:37.960Z,48.67
2018-08-23T06:06:06.684Z,46.90
2018-08-23T06:08:35.994Z,46.20
2018-08-23T06:11:08.317Z,45.40
2018-08-23T06:13:37.123Z,43.17
2018-08-23T06:16:06.415Z,44.23
2018-08-23T06:18:35.499Z,43.60
2018-08-23T06:21:04.728Z,44.03
2018-08-23T06:24:06.014Z,46.47
2018-08-23T06:26:48.173Z,44.63
2018-08-23T06:29:18.705Z,45.57
2018-08-23T06:32:09.342Z,47.53
2018-08-23T06:34:45.761Z,45.27
2018-08-23T06:37:15.736Z,48.93
2018-08-23T06:39:44.907Z,49.27
2018-08-23T06:42:13.881Z,50.23
2018-08-23T06:44:48.481Z,49.10
2018-08-23T06:47:18.775Z,50.17
2018-08-23T06:49:49.050Z,52.20
2018-08-23T06:52:30.259Z,49.83
2018-08-23T06:54:59.278Z,50.97
2018-08-23T06:57:33.771Z,49.23
2018-08-23T07:00:02.650Z,50.03
2018-08-23T07:02:31.778Z,52.20
2018-08-23T07:05:01.094Z,54.63
2018-08-23T07:07:30.127Z,53.17
2018-08-23T07:09:59.230Z,51.13
2018-08-23T07:12:28.159Z,51.47
2018-08-23T07:14:57.304Z,51.20
2018-08-23T07:17:28.280Z,51.17
2018-08-23T07:20:00.863Z,52.47
2018-08-23T07:22:29.691Z,48.73
2018-08-23T07:24:59.164Z,48.20
2018-08-23T07:27:28.241Z,48.30
2018-08-23T07:29:58.417Z,50.33
2018-08-23T07:32:31.428Z,51.67
2018-08-23T07:35:21.366Z,49.27
2018-08-23T07:37:51.558Z,49.27
2018-08-23T07:40:21.791Z,47.70
2018-08-23T07:42:52.078Z,48.70
2018-08-23T07:45:21.190Z,47.57
2018-08-23T07:47:52.586Z,50.40
2018-08-23T07:50:21.687Z,51.03
2018-08-23T07:52:51.975Z,47.63
2018-08-23T07:55:21.435Z,48.33
2018-08-23T07:57:50.681Z,52.20
2018-08-23T08:00:44.297Z,51.10
2018-08-23T08:03:15.227Z,51.00
2018-08-23T08:05:45.889Z,46.80
2018-08-23T08:08:14.860Z,51.07
2018-08-23T08:10:46.026Z,45.83
2018-08-23T08:13:15.117Z,46.43
2018-08-23T08:15:44.264Z,46.47
2018-08-23T08:18:23.773Z,43.47
2018-08-23T08:21:00.737Z,45.80
2018-08-23T08:23:30.329Z,44.33
2018-08-23T08:25:59.648Z,45.13
2018-08-23T08:28:28.959Z,46.10
2018-08-23T08:31:01.213Z,43.43
2018-08-23T08:33:35.186Z,45.30
2018-08-23T08:36:05.430Z,43.17
2018-08-23T08:38:35.560Z,44.03
2018-08-23T08:41:04.893Z,45.00
2018-08-23T08:43:34.538Z,45.90
2018-08-23T08:46:04.049Z,44.60
2018-08-23T08:48:35.400Z,43.40
2018-08-23T08:51:17.981Z,48.70
2018-08-23T08:53:47.622Z,42.87
2018-08-23T08:56:18.938Z,44.67
2018-08-23T08:58:48.339Z,44.10
2018-08-23T09:01:17.875Z,41.73
2018-08-23T09:03:48.062Z,42.48
2018-08-23T09:06:24.574Z,43.08
2018-08-23T09:08:53.739Z,43.45
2018-08-23T09:11:24.198Z,41.68
2018-08-23T09:13:53.302Z,40.52
2018-08-23T09:16:23.262Z,42.90
2018-08-23T09:18:59.643Z,42.65
2018-08-23T09:21:28.973Z,38.30
2018-08-23T09:24:04.210Z,36.93
2018-08-23T09:26:38.309Z,33.73
2018-08-23T09:29:46.084Z,34.63
2018-08-23T09:32:31.577Z,31.27
2018-08-23T09:35:04.664Z,28.98
2018-08-23T09:37:36.588Z,28.67
2018-08-23T09:40:07.032Z,28.40
2018-08-23T09:42:37.240Z,25.37
2018-08-23T09:45:12.278Z,21.68
2018-08-23T09:47:41.559Z,19.62
2018-08-23T09:50:11.009Z,17.67
2018-08-23T09:52:44.451Z,16.65
2018-08-23T09:55:14.811Z,15.80
2018-08-23T09:57:44.644Z,12.33
2018-08-23T10:00:19.396Z,11.43
2018-08-23T10:02:53.910Z,12.93
2018-08-23T10:05:28.705Z,12.28
2018-08-23T10:08:03.411Z,13.10
2018-08-23T10:10:37.920Z,12.82
2018-08-23T10:13:12.424Z,11.53
2018-08-23T10:15:44.797Z,9.80
2018-08-23T10:18:19.289Z,10.95
2018-08-23T10:20:58.925Z,10.35
2018-08-23T10:23:28.421Z,8.88
2018-08-23T10:25:58.845Z,9.15
2018-08-23T10:28:33.142Z,8.93
2018-08-23T10:31:02.952Z,9.05
2018-08-23T10:33:33.230Z,7.72
2018-08-23T10:36:02.712Z,8.15
2018-08-23T10:38:32.190Z,6.67
2018-08-23T10:41:04.128Z,6.80
2018-08-23T10:43:38.731Z,7.17
2018-08-23T10:46:07.981Z,6.62
2018-08-23T10:48:37.195Z,6.47
2018-08-23T10:51:06.601Z,6.08
2018-08-23T10:53:35.757Z,6.92
2018-08-23T10:56:06.403Z,6.08
2018-08-23T10:58:35.688Z,5.67
2018-08-23T11:01:05.149Z,6.08
2018-08-23T11:03:34.431Z,6.65
2018-08-23T11:06:04.828Z,6.00
2018-08-23T11:08:36.539Z,6.10
2018-08-23T11:11:13.244Z,5.78
2018-08-23T11:13:46.650Z,5.60
2018-08-23T11:16:21.335Z,5.70
2018-08-23T11:18:55.926Z,5.53
2018-08-23T11:21:25.391Z,5.00
2018-08-23T11:23:54.469Z,5.33
2018-08-23T11:26:25.247Z,4.42
2018-08-23T11:28:54.734Z,4.72
2018-08-23T11:31:29.864Z,4.03
2018-08-23T11:33:59.222Z,4.72
2018-08-23T11:36:28.503Z,3.72
2018-08-23T11:38:57.899Z,4.42
2018-08-23T11:41:26.982Z,4.25
2018-08-23T11:43:56.253Z,4.20
2018-08-23T11:46:25.597Z,4.30
2018-08-23T11:48:54.667Z,4.65
2018-08-23T11:51:24.215Z,5.05
2018-08-23T11:53:53.677Z,4.70
2018-08-23T11:56:23.557Z,4.92
2018-08-23T11:58:53.093Z,5.17
2018-08-23T12:01:22.430Z,5.08
2018-08-23T12:03:51.839Z,4.80
2018-08-23T12:06:21.615Z,5.03
2018-08-23T12:08:51.020Z,5.00
2018-08-23T12:11:20.958Z,4.30
2018-08-23T12:13:51.500Z,4.35
2018-08-23T12:16:21.279Z,4.45
2018-08-23T12:18:51.041Z,4.62
2018-08-23T12:21:21.240Z,4.03
2018-08-23T12:23:50.961Z,3.87
2018-08-23T12:26:20.825Z,3.72
2018-08-23T12:28:55.468Z,4.03
2018-08-23T12:31:25.270Z,3.80
2018-08-23T12:33:54.832Z,3.75
2018-08-23T12:36:29.445Z,3.95
2018-08-23T12:39:04.006Z,3.80
2018-08-23T12:41:39.057Z,4.20
2018-08-23T12:44:08.524Z,4.17
2018-08-23T12:46:38.513Z,3.70
2018-08-23T12:49:08.109Z,3.67
2018-08-23T12:51:37.930Z,3.60
2018-08-23T12:54:07.606Z,3.83
2018-08-23T12:56:36.846Z,3.92
2018-08-23T12:59:06.272Z,4.25
2018-08-23T13:01:35.840Z,3.98
2018-08-23T13:04:06.707Z,3.47
2018-08-23T13:06:36.089Z,4.05
2018-08-23T13:09:06.552Z,3.47
2018-08-23T13:11:35.723Z,4.10
2018-08-23T13:14:05.094Z,4.17
2018-08-23T13:16:34.165Z,4.00
2018-08-23T13:19:03.836Z,4.00
2018-08-23T13:21:33.426Z,4.60
2018-08-23T13:24:03.288Z,4.28
2018-08-23T13:26:38.203Z,4.42
2018-08-23T13:29:07.512Z,4.60
2018-08-23T13:31:36.904Z,4.50
2018-08-23T13:34:06.939Z,4.40
2018-08-23T13:36:39.152Z,4.65
2018-08-23T13:39:10.620Z,4.47
2018-08-23T13:41:39.819Z,5.00
2018-08-23T13:44:09.108Z,4.87
2018-08-23T13:46:38.842Z,4.50
2018-08-23T13:49:08.064Z,4.28
2018-08-23T13:51:37.504Z,4.40
2018-08-23T13:54:06.956Z,4.30
2018-08-23T13:56:36.464Z,4.40
2018-08-23T13:59:05.929Z,4.45
2018-08-23T14:01:35.676Z,4.70
2018-08-23T14:04:04.999Z,4.87
2018-08-23T14:06:34.315Z,4.87
2018-08-23T14:09:05.341Z,4.47
2018-08-23T14:11:34.689Z,5.40
2018-08-23T14:14:03.941Z,5.70
2018-08-23T14:16:34.197Z,5.60
2018-08-23T14:19:04.518Z,5.60
2018-08-23T14:21:33.838Z,5.15
2018-08-23T14:24:03.523Z,5.40
2018-08-23T14:26:33.305Z,5.45
2018-08-23T14:29:02.553Z,5.65
2018-08-23T14:31:31.731Z,5.67
2018-08-23T14:34:01.048Z,5.30
2018-08-23T14:36:30.059Z,5.75
2018-08-23T14:38:59.740Z,5.80
2018-08-23T14:41:29.192Z,5.90
2018-08-23T14:43:58.582Z,5.90
2018-08-23T14:46:32.955Z,6.90
2018-08-23T14:49:02.399Z,7.50
2018-08-23T14:51:31.580Z,6.80
2018-08-23T14:54:00.628Z,7.00
2018-08-23T14:56:35.168Z,7.08
2018-08-23T14:59:04.397Z,8.00
2018-08-23T15:01:33.375Z,7.92
2018-08-23T15:04:02.478Z,7.35
2018-08-23T15:06:31.465Z,8.15
2018-08-23T15:09:00.538Z,8.90
2018-08-23T15:11:29.866Z,7.62
2018-08-23T15:13:58.894Z,7.78
2018-08-23T15:16:27.826Z,7.62
2018-08-23T15:18:56.807Z,8.13
2018-08-23T15:21:25.810Z,8.78
2018-08-23T15:23:54.994Z,9.03
2018-08-23T15:26:24.562Z,8.38
2018-08-23T15:28:53.470Z,9.35
2018-08-23T15:31:22.700Z,9.03
2018-08-23T15:33:51.596Z,9.15
2018-08-23T15:36:20.762Z,9.40
2018-08-23T15:38:50.085Z,9.00
2018-08-23T15:41:19.089Z,8.33
2018-08-23T15:43:48.240Z,10.13
2018-08-23T15:46:17.188Z,10.32
2018-08-23T15:48:46.496Z,8.85
2018-08-23T15:51:15.412Z,9.68
2018-08-23T15:53:44.379Z,10.35
2018-08-23T15:56:13.283Z,11.08
2018-08-23T15:58:42.243Z,9.65
2018-08-23T16:01:11.201Z,9.80
2018-08-23T16:03:40.287Z,9.65
2018-08-23T16:06:10.507Z,9.65
2018-08-23T16:08:44.661Z,9.18
2018-08-23T16:11:14.425Z,9.73
2018-08-23T16:13:43.375Z,9.80
2018-08-23T16:16:17.772Z,8.55
2018-08-23T16:18:51.837Z,9.48
2018-08-23T16:21:25.953Z,9.33
2018-08-23T16:23:55.087Z,9.75
2018-08-23T16:26:24.032Z,8.80
2018-08-23T16:28:52.865Z,9.65
2018-08-23T16:31:21.923Z,10.13
2018-08-23T16:33:51.090Z,9.98
2018-08-23T16:36:20.017Z,11.00
2018-08-23T16:38:49.013Z,9.40
2018-08-23T16:41:17.840Z,9.40
2018-08-23T16:43:46.675Z,10.15
2018-08-23T16:46:16.352Z,8.40
2018-08-23T16:48:45.291Z,9.33
2018-08-23T16:51:14.463Z,10.55
2018-08-23T16:53:43.963Z,8.75
2018-08-23T16:56:13.242Z,9.45
2018-08-23T16:58:42.362Z,9.70
2018-08-23T17:01:11.127Z,10.10
2018-08-23T17:03:40.032Z,9.83
2018-08-23T17:06:09.028Z,9.40
2018-08-23T17:08:37.837Z,8.70
2018-08-23T17:11:06.686Z,8.83
2018-08-23T17:13:36.483Z,8.78
2018-08-23T17:16:11.816Z,9.53
2018-08-23T17:18:40.978Z,8.90
2018-08-23T17:21:09.926Z,9.28
2018-08-23T17:23:39.058Z,10.03
2018-08-23T17:26:08.897Z,10.03
2018-08-23T17:28:37.778Z,9.20
2018-08-23T17:31:06.746Z,9.47
2018-08-23T17:33:35.634Z,8.93
2018-08-23T17:36:05.087Z,10.40
2018-08-23T17:38:34.158Z,10.20
2018-08-23T17:41:03.008Z,11.00
2018-08-23T17:43:32.028Z,9.70
2018-08-23T17:46:00.878Z,11.10
2018-08-23T17:48:29.836Z,10.90
2018-08-23T17:50:58.601Z,11.50
2018-08-23T17:53:27.408Z,11.33
2018-08-23T17:55:56.201Z,10.53
2018-08-23T17:58:25.276Z,10.70
2018-08-23T18:00:54.121Z,11.00
2018-08-23T18:03:23.072Z,9.93
2018-08-23T18:05:51.936Z,9.30
2018-08-23T18:08:21.917Z,10.10
2018-08-23T18:10:51.905Z,10.00
2018-08-23T18:13:21.712Z,9.27
2018-08-23T18:15:56.148Z,8.80
2018-08-23T18:18:25.980Z,8.93
2018-08-23T18:20:55.125Z,8.23
2018-08-23T18:23:24.521Z,8.93
2018-08-23T18:25:54.532Z,8.70
2018-08-23T18:28:24.359Z,8.87
2018-08-23T18:30:53.695Z,7.87
2018-08-23T18:33:23.052Z,8.80
2018-08-23T18:35:51.920Z,7.57
2018-08-23T18:38:20.757Z,8.30
2018-08-23T18:40:49.579Z,7.40
2018-08-23T18:43:18.381Z,7.97
2018-08-23T18:45:47.288Z,8.07
2018-08-23T18:48:16.159Z,7.40
2018-08-23T18:50:45.017Z,7.70
2018-08-23T18:53:13.860Z,6.77
2018-08-23T18:55:42.634Z,7.03
2018-08-23T18:58:11.576Z,6.93
2018-08-23T19:00:40.410Z,7.13
2018-08-23T19:03:09.289Z,6.90
2018-08-23T19:05:39.244Z,7.57
2018-08-23T19:08:08.140Z,6.40
2018-08-23T19:10:36.984Z,7.37
2018-08-23T19:13:06.031Z,6.70
2018-08-23T19:15:40.398Z,6.33
2018-08-23T19:18:09.406Z,6.60
2018-08-23T19:20:38.352Z,5.77
2018-08-23T19:23:07.413Z,6.30
2018-08-23T19:25:36.243Z,6.77
2018-08-23T19:28:05.068Z,6.17
2018-08-23T19:30:33.933Z,6.70
2018-08-23T19:33:03.391Z,7.20
2018-08-23T19:35:31.532Z,6.13
2018-08-23T19:38:00.367Z,6.87
2018-08-23T19:40:30.798Z,6.20
2018-08-23T19:43:01.741Z,6.67
2018-08-23T19:45:36.676Z,6.67
2018-08-23T19:48:07.260Z,6.30
2018-08-23T19:50:36.794Z,6.83
2018-08-23T19:53:06.037Z,6.13
2018-08-23T19:55:35.212Z,6.03
2018-08-23T19:58:05.491Z,6.60
2018-08-23T20:00:35.874Z,6.07
2018-08-23T20:03:04.865Z,6.20
2018-08-23T20:05:34.050Z,5.83
2018-08-23T20:08:02.913Z,5.50
2018-08-23T20:10:31.852Z,5.30
2018-08-23T20:13:00.695Z,6.20
2018-08-23T20:15:29.611Z,6.20
2018-08-23T20:17:58.410Z,6.00
2018-08-23T20:20:27.275Z,6.10
2018-08-23T20:22:56.455Z,6.07
2018-08-23T20:25:25.436Z,5.67
2018-08-23T20:27:56.996Z,6.13
2018-08-23T20:30:25.916Z,5.80
2018-08-23T20:32:54.763Z,5.83
2018-08-23T20:35:23.926Z,6.00
2018-08-23T20:37:53.376Z,5.67
2018-08-23T20:40:22.217Z,5.67
2018-08-23T20:42:51.082Z,5.77
2018-08-23T20:45:19.978Z,6.00
2018-08-23T20:47:48.797Z,6.20
2018-08-23T20:50:17.667Z,6.40
2018-08-23T20:52:46.568Z,5.93
2018-08-23T20:55:15.588Z,5.90
2018-08-23T20:57:44.432Z,6.37
2018-08-23T21:00:13.557Z,6.47
2018-08-23T21:02:42.307Z,5.43
2018-08-23T21:05:11.173Z,5.83
2018-08-23T21:07:40.265Z,6.00
2018-08-23T21:10:09.856Z,5.57
2018-08-23T21:12:39.762Z,5.30
2018-08-23T21:15:09.832Z,5.00
2018-08-23T21:17:39.083Z,5.63
2018-08-23T21:20:08.774Z,5.17
2018-08-23T21:22:38.230Z,5.13
2018-08-23T21:25:07.619Z,4.83
2018-08-23T21:27:37.850Z,4.70
2018-08-23T21:30:08.188Z,4.20
2018-08-23T21:32:37.823Z,4.87
2018-08-23T21:35:07.497Z,4.37
2018-08-23T21:37:36.916Z,4.13
2018-08-23T21:40:06.381Z,4.20
2018-08-23T21:42:36.608Z,3.73
2018-08-23T21:45:11.075Z,4.50
2018-08-23T21:47:40.573Z,4.20
2018-08-23T21:50:10.301Z,4.20
2018-08-23T21:52:40.110Z,4.13
2018-08-23T21:55:10.029Z,4.13
2018-08-23T21:57:39.815Z,3.80
2018-08-23T22:00:10.357Z,3.90
2018-08-23T22:02:39.821Z,4.30
2018-08-23T22:05:09.072Z,4.33
2018-08-23T22:07:38.760Z,4.33
2018-08-23T22:10:08.472Z,3.93
2018-08-23T22:12:38.050Z,4.27
2018-08-23T22:15:07.957Z,3.80
2018-08-23T22:17:37.637Z,4.23
2018-08-23T22:20:07.471Z,4.30
2018-08-23T22:22:36.710Z,4.40
2018-08-23T22:25:06.148Z,4.00
2018-08-23T22:27:35.724Z,4.10
2018-08-23T22:30:05.642Z,4.60
2018-08-23T22:32:35.434Z,4.23
2018-08-23T22:35:04.795Z,4.20
2018-08-23T22:37:34.166Z,5.10
2018-08-23T22:40:04.157Z,4.40
2018-08-23T22:42:34.738Z,4.67
2018-08-23T22:45:04.209Z,4.40
2018-08-23T22:47:33.456Z,4.40
2018-08-23T22:50:02.548Z,4.90
2018-08-23T22:52:31.752Z,4.73
2018-08-23T22:55:01.275Z,4.97
2018-08-23T22:57:30.585Z,4.73
2018-08-23T22:59:59.941Z,4.97
2018-08-23T23:02:44.324Z,5.30
2018-08-23T23:05:13.667Z,5.23
2018-08-23T23:07:42.905Z,5.37
2018-08-23T23:10:13.037Z,5.00
2018-08-23T23:12:42.900Z,5.63
2018-08-23T23:15:31.694Z,4.43
2018-08-23T23:18:01.120Z,4.30
2018-08-23T23:20:30.169Z,4.43
2018-08-23T23:22:59.383Z,4.13
2018-08-23T23:25:28.969Z,3.87
2018-08-23T23:27:58.711Z,3.63
2018-08-23T23:30:28.171Z,3.90
2018-08-23T23:32:57.694Z,3.23
2018-08-23T23:35:26.893Z,4.80
2018-08-23T23:37:55.948Z,3.90
2018-08-23T23:40:24.813Z,3.70
2018-08-23T23:42:53.746Z,3.57
2018-08-23T23:45:22.560Z,3.70
2018-08-23T23:47:51.437Z,3.37
2018-08-23T23:50:20.375Z,3.80
2018-08-23T23:52:50.233Z,3.33
2018-08-23T23:55:19.049Z,3.40
2018-08-23T23:57:47.951Z,3.70
